sensor_id;sensor_type;location;lat;lon;timestamp;P1;durP1;ratioP1;P2;durP2;ratioP2
41719;SDS011;27405;53.316;-6.294;2024-03-06T00:00:58;38.75;;;12.52;;
41719;SDS011;27405;53.316;-6.294;2024-03-06T00:03:24;33.80;;;11.80;;
41719;SDS011;27405;53.316;-6.294;2024-03-06T00:05:50;42.65;;;12.70;;
41719;SDS011;27405;53.316;-6.294;2024-03-06T00:08:16;38.15;;;12.43;;
41719;SDS011;27405;53.316;-6.294;2024-03-06T00:10:42;39.95;;;13.35;;
41719;SDS011;27405;53.316;-6.294;2024-03-06T00:13:08;30.75;;;11.15;;
41719;SDS011;27405;53.316;-6.294;2024-03-06T00:15:34;34.80;;;10.85;;
41719;SDS011;27405;53.316;-6.294;2024-03-06T00:18:00;31.17;;;10.10;;
41719;SDS011;27405;53.316;-6.294;2024-03-06T00:20:26;34.80;;;9.98;;
41719;SDS011;27405;53.316;-6.294;2024-03-06T00:22:53;28.42;;;8.10;;
41719;SDS011;27405;53.316;-6.294;2024-03-06T00:25:19;34.92;;;8.60;;
41719;SDS011;27405;53.316;-6.294;2024-03-06T00:27:45;24.05;;;7.03;;
41719;SDS011;27405;53.316;-6.294;2024-03-06T00:30:11;31.25;;;7.78;;
41719;SDS011;27405;53.316;-6.294;2024-03-06T00:32:37;29.50;;;8.20;;
41719;SDS011;27405;53.316;-6.294;2024-03-06T00:35:03;34.17;;;8.73;;
41719;SDS011;27405;53.316;-6.294;2024-03-06T00:37:29;32.20;;;8.52;;
41719;SDS011;27405;53.316;-6.294;2024-03-06T00:39:55;29.38;;;8.68;;
41719;SDS011;27405;53.316;-6.294;2024-03-06T00:42:21;36.80;;;8.55;;
41719;SDS011;27405;53.316;-6.294;2024-03-06T00:44:47;30.70;;;8.85;;
41719;SDS011;27405;53.316;-6.294;2024-03-06T00:47:13;35.55;;;11.13;;
41719;SDS011;27405;53.316;-6.294;2024-03-06T00:49:39;29.15;;;8.35;;
41719;SDS011;27405;53.316;-6.294;2024-03-06T00:52:07;33.47;;;7.97;;
41719;SDS011;27405;53.316;-6.294;2024-03-06T00:54:34;32.25;;;7.43;;
41719;SDS011;27405;53.316;-6.294;2024-03-06T00:57:00;35.42;;;7.78;;
41719;SDS011;27405;53.316;-6.294;2024-03-06T00:59:27;28.80;;;7.50;;
41719;SDS011;27405;53.316;-6.294;2024-03-06T01:01:53;26.73;;;6.90;;
41719;SDS011;27405;53.316;-6.294;2024-03-06T01:04:22;29.05;;;7.75;;
41719;SDS011;27405;53.316;-6.294;2024-03-06T01:06:48;28.60;;;7.40;;
41719;SDS011;27405;53.316;-6.294;2024-03-06T01:09:15;26.33;;;7.22;;
41719;SDS011;27405;53.316;-6.294;2024-03-06T01:11:41;27.38;;;6.57;;
41719;SDS011;27405;53.316;-6.294;2024-03-06T01:14:07;23.65;;;6.63;;
41719;SDS011;27405;53.316;-6.294;2024-03-06T01:16:33;27.92;;;5.88;;
41719;SDS011;27405;53.316;-6.294;2024-03-06T01:18:59;28.20;;;6.50;;
41719;SDS011;27405;53.316;-6.294;2024-03-06T01:21:24;28.77;;;5.97;;
41719;SDS011;27405;53.316;-6.294;2024-03-06T01:23:50;25.15;;;4.38;;
41719;SDS011;27405;53.316;-6.294;2024-03-06T01:26:16;25.15;;;5.00;;
41719;SDS011;27405;53.316;-6.294;2024-03-06T01:32:04;25.83;;;5.07;;
41719;SDS011;27405;53.316;-6.294;2024-03-06T01:34:30;21.83;;;4.28;;
41719;SDS011;27405;53.316;-6.294;2024-03-06T01:36:57;28.35;;;4.22;;
41719;SDS011;27405;53.316;-6.294;2024-03-06T01:39:23;25.70;;;5.18;;
41719;SDS011;27405;53.316;-6.294;2024-03-06T01:41:49;25.38;;;4.18;;
41719;SDS011;27405;53.316;-6.294;2024-03-06T01:44:17;15.48;;;4.30;;
41719;SDS011;27405;53.316;-6.294;2024-03-06T01:46:44;15.50;;;2.45;;
41719;SDS011;27405;53.316;-6.294;2024-03-06T01:49:10;21.55;;;3.35;;
41719;SDS011;27405;53.316;-6.294;2024-03-06T01:51:38;17.30;;;2.50;;
41719;SDS011;27405;53.316;-6.294;2024-03-06T01:54:06;20.85;;;2.78;;
41719;SDS011;27405;53.316;-6.294;2024-03-06T01:56:33;22.35;;;2.70;;
41719;SDS011;27405;53.316;-6.294;2024-03-06T01:59:00;18.95;;;2.95;;
41719;SDS011;27405;53.316;-6.294;2024-03-06T02:01:28;24.20;;;2.92;;
41719;SDS011;27405;53.316;-6.294;2024-03-06T02:03:56;21.73;;;2.70;;
41719;SDS011;27405;53.316;-6.294;2024-03-06T02:06:22;19.50;;;2.88;;
41719;SDS011;27405;53.316;-6.294;2024-03-06T02:08:48;23.00;;;3.30;;
41719;SDS011;27405;53.316;-6.294;2024-03-06T02:11:14;15.63;;;2.70;;
41719;SDS011;27405;53.316;-6.294;2024-03-06T02:13:43;19.83;;;3.47;;
41719;SDS011;27405;53.316;-6.294;2024-03-06T02:16:09;23.63;;;3.80;;
41719;SDS011;27405;53.316;-6.294;2024-03-06T02:18:36;22.73;;;4.22;;
41719;SDS011;27405;53.316;-6.294;2024-03-06T02:21:02;21.17;;;3.78;;
41719;SDS011;27405;53.316;-6.294;2024-03-06T02:23:30;25.90;;;4.32;;
41719;SDS011;27405;53.316;-6.294;2024-03-06T02:25:56;22.73;;;4.38;;
41719;SDS011;27405;53.316;-6.294;2024-03-06T02:28:22;19.27;;;4.28;;
41719;SDS011;27405;53.316;-6.294;2024-03-06T02:30:51;21.73;;;4.05;;
41719;SDS011;27405;53.316;-6.294;2024-03-06T02:35:43;21.83;;;3.50;;
41719;SDS011;27405;53.316;-6.294;2024-03-06T02:38:11;20.58;;;3.58;;
41719;SDS011;27405;53.316;-6.294;2024-03-06T02:40:37;22.38;;;3.83;;
41719;SDS011;27405;53.316;-6.294;2024-03-06T02:43:03;21.95;;;3.22;;
41719;SDS011;27405;53.316;-6.294;2024-03-06T02:45:29;26.35;;;3.97;;
41719;SDS011;27405;53.316;-6.294;2024-03-06T02:47:56;26.05;;;4.25;;
41719;SDS011;27405;53.316;-6.294;2024-03-06T02:50:21;27.67;;;4.15;;
41719;SDS011;27405;53.316;-6.294;2024-03-06T02:52:48;28.23;;;3.95;;
41719;SDS011;27405;53.316;-6.294;2024-03-06T02:55:14;31.08;;;4.68;;
41719;SDS011;27405;53.316;-6.294;2024-03-06T02:57:40;19.27;;;3.53;;
41719;SDS011;27405;53.316;-6.294;2024-03-06T03:00:06;22.02;;;3.72;;
41719;SDS011;27405;53.316;-6.294;2024-03-06T03:02:38;25.77;;;4.22;;
41719;SDS011;27405;53.316;-6.294;2024-03-06T03:05:04;26.92;;;4.35;;
41719;SDS011;27405;53.316;-6.294;2024-03-06T03:07:31;29.98;;;4.32;;
41719;SDS011;27405;53.316;-6.294;2024-03-06T03:09:57;30.10;;;3.88;;
41719;SDS011;27405;53.316;-6.294;2024-03-06T03:12:23;26.40;;;4.05;;
41719;SDS011;27405;53.316;-6.294;2024-03-06T03:14:49;30.02;;;4.05;;
41719;SDS011;27405;53.316;-6.294;2024-03-06T03:17:15;24.52;;;4.15;;
41719;SDS011;27405;53.316;-6.294;2024-03-06T03:19:42;33.03;;;4.47;;
41719;SDS011;27405;53.316;-6.294;2024-03-06T03:22:08;33.40;;;5.65;;
41719;SDS011;27405;53.316;-6.294;2024-03-06T03:24:35;26.73;;;4.82;;
41719;SDS011;27405;53.316;-6.294;2024-03-06T03:27:02;30.35;;;5.05;;
41719;SDS011;27405;53.316;-6.294;2024-03-06T03:29:28;27.27;;;4.70;;
41719;SDS011;27405;53.316;-6.294;2024-03-06T03:31:55;25.88;;;4.97;;
41719;SDS011;27405;53.316;-6.294;2024-03-06T03:34:22;24.83;;;4.68;;
41719;SDS011;27405;53.316;-6.294;2024-03-06T03:36:48;26.83;;;5.78;;
41719;SDS011;27405;53.316;-6.294;2024-03-06T03:39:14;31.40;;;5.40;;
41719;SDS011;27405;53.316;-6.294;2024-03-06T03:41:46;26.08;;;5.03;;
41719;SDS011;27405;53.316;-6.294;2024-03-06T03:44:16;25.08;;;4.47;;
41719;SDS011;27405;53.316;-6.294;2024-03-06T03:46:46;27.52;;;5.28;;
41719;SDS011;27405;53.316;-6.294;2024-03-06T03:49:12;26.38;;;5.15;;
41719;SDS011;27405;53.316;-6.294;2024-03-06T03:51:38;22.33;;;4.68;;
41719;SDS011;27405;53.316;-6.294;2024-03-06T03:54:05;26.65;;;4.88;;
41719;SDS011;27405;53.316;-6.294;2024-03-06T03:56:32;26.52;;;4.93;;
41719;SDS011;27405;53.316;-6.294;2024-03-06T03:58:58;23.33;;;5.32;;
41719;SDS011;27405;53.316;-6.294;2024-03-06T04:01:24;24.75;;;5.13;;
41719;SDS011;27405;53.316;-6.294;2024-03-06T04:03:51;25.42;;;4.80;;
41719;SDS011;27405;53.316;-6.294;2024-03-06T04:06:17;35.95;;;5.13;;
41719;SDS011;27405;53.316;-6.294;2024-03-06T04:12:06;32.22;;;5.40;;
41719;SDS011;27405;53.316;-6.294;2024-03-06T04:14:32;23.02;;;4.85;;
41719;SDS011;27405;53.316;-6.294;2024-03-06T04:16:58;32.22;;;5.18;;
41719;SDS011;27405;53.316;-6.294;2024-03-06T04:19:24;28.08;;;5.05;;
41719;SDS011;27405;53.316;-6.294;2024-03-06T04:21:50;28.45;;;5.50;;
41719;SDS011;27405;53.316;-6.294;2024-03-06T04:24:16;26.73;;;5.20;;
41719;SDS011;27405;53.316;-6.294;2024-03-06T04:26:42;24.33;;;5.88;;
41719;SDS011;27405;53.316;-6.294;2024-03-06T04:29:07;22.10;;;5.47;;
41719;SDS011;27405;53.316;-6.294;2024-03-06T04:31:34;26.27;;;5.60;;
41719;SDS011;27405;53.316;-6.294;2024-03-06T04:34:00;28.05;;;5.28;;
41719;SDS011;27405;53.316;-6.294;2024-03-06T04:36:27;28.15;;;4.97;;
41719;SDS011;27405;53.316;-6.294;2024-03-06T04:38:53;29.38;;;4.72;;
41719;SDS011;27405;53.316;-6.294;2024-03-06T04:41:19;32.80;;;5.47;;
41719;SDS011;27405;53.316;-6.294;2024-03-06T04:43:45;28.35;;;4.55;;
41719;SDS011;27405;53.316;-6.294;2024-03-06T04:46:14;32.13;;;5.15;;
41719;SDS011;27405;53.316;-6.294;2024-03-06T04:48:40;25.98;;;4.40;;
41719;SDS011;27405;53.316;-6.294;2024-03-06T04:51:06;27.02;;;4.57;;
41719;SDS011;27405;53.316;-6.294;2024-03-06T04:53:31;30.02;;;5.30;;
41719;SDS011;27405;53.316;-6.294;2024-03-06T04:55:58;38.08;;;5.10;;
41719;SDS011;27405;53.316;-6.294;2024-03-06T04:58:23;29.10;;;4.40;;
41719;SDS011;27405;53.316;-6.294;2024-03-06T05:00:49;29.35;;;3.80;;
41719;SDS011;27405;53.316;-6.294;2024-03-06T05:03:15;31.60;;;4.38;;
41719;SDS011;27405;53.316;-6.294;2024-03-06T05:05:41;39.45;;;5.03;;
41719;SDS011;27405;53.316;-6.294;2024-03-06T05:08:07;37.45;;;4.85;;
41719;SDS011;27405;53.316;-6.294;2024-03-06T05:10:35;36.72;;;4.93;;
41719;SDS011;27405;53.316;-6.294;2024-03-06T05:13:01;33.80;;;5.10;;
41719;SDS011;27405;53.316;-6.294;2024-03-06T05:15:27;29.48;;;3.90;;
41719;SDS011;27405;53.316;-6.294;2024-03-06T05:17:53;23.58;;;4.07;;
41719;SDS011;27405;53.316;-6.294;2024-03-06T05:20:21;25.30;;;3.70;;
41719;SDS011;27405;53.316;-6.294;2024-03-06T05:22:47;23.38;;;3.50;;
41719;SDS011;27405;53.316;-6.294;2024-03-06T05:25:13;22.42;;;3.90;;
41719;SDS011;27405;53.316;-6.294;2024-03-06T05:27:38;24.80;;;3.58;;
41719;SDS011;27405;53.316;-6.294;2024-03-06T05:30:05;29.85;;;3.60;;
41719;SDS011;27405;53.316;-6.294;2024-03-06T05:32:31;24.48;;;4.18;;
41719;SDS011;27405;53.316;-6.294;2024-03-06T05:34:57;22.95;;;3.75;;
41719;SDS011;27405;53.316;-6.294;2024-03-06T05:37:23;26.67;;;4.20;;
41719;SDS011;27405;53.316;-6.294;2024-03-06T05:39:49;25.95;;;3.85;;
41719;SDS011;27405;53.316;-6.294;2024-03-06T05:42:15;23.88;;;4.07;;
41719;SDS011;27405;53.316;-6.294;2024-03-06T05:44:41;29.83;;;4.10;;
41719;SDS011;27405;53.316;-6.294;2024-03-06T05:47:07;32.10;;;4.97;;
41719;SDS011;27405;53.316;-6.294;2024-03-06T05:49:33;32.30;;;5.10;;
41719;SDS011;27405;53.316;-6.294;2024-03-06T05:51:59;33.70;;;4.85;;
41719;SDS011;27405;53.316;-6.294;2024-03-06T05:54:25;33.65;;;4.70;;
41719;SDS011;27405;53.316;-6.294;2024-03-06T05:56:52;34.63;;;5.07;;
41719;SDS011;27405;53.316;-6.294;2024-03-06T05:59:18;26.73;;;4.53;;
41719;SDS011;27405;53.316;-6.294;2024-03-06T06:01:45;35.40;;;4.07;;
41719;SDS011;27405;53.316;-6.294;2024-03-06T06:04:11;29.25;;;4.18;;
41719;SDS011;27405;53.316;-6.294;2024-03-06T06:06:39;26.10;;;4.07;;
41719;SDS011;27405;53.316;-6.294;2024-03-06T06:09:05;31.17;;;4.32;;
41719;SDS011;27405;53.316;-6.294;2024-03-06T06:11:31;28.20;;;4.43;;
41719;SDS011;27405;53.316;-6.294;2024-03-06T06:14:01;33.90;;;4.60;;
41719;SDS011;27405;53.316;-6.294;2024-03-06T06:16:27;34.40;;;3.95;;
41719;SDS011;27405;53.316;-6.294;2024-03-06T06:18:59;28.70;;;4.15;;
41719;SDS011;27405;53.316;-6.294;2024-03-06T06:21:26;34.33;;;4.90;;
41719;SDS011;27405;53.316;-6.294;2024-03-06T06:23:52;30.13;;;4.22;;
41719;SDS011;27405;53.316;-6.294;2024-03-06T06:26:18;38.22;;;4.97;;
41719;SDS011;27405;53.316;-6.294;2024-03-06T06:28:45;32.80;;;4.88;;
41719;SDS011;27405;53.316;-6.294;2024-03-06T06:31:11;31.13;;;3.65;;
41719;SDS011;27405;53.316;-6.294;2024-03-06T06:33:37;26.98;;;3.72;;
41719;SDS011;27405;53.316;-6.294;2024-03-06T06:36:03;33.88;;;5.20;;
41719;SDS011;27405;53.316;-6.294;2024-03-06T06:41:52;27.73;;;3.85;;
41719;SDS011;27405;53.316;-6.294;2024-03-06T06:44:18;24.58;;;3.33;;
41719;SDS011;27405;53.316;-6.294;2024-03-06T06:46:44;25.65;;;3.50;;
41719;SDS011;27405;53.316;-6.294;2024-03-06T06:49:09;27.88;;;4.07;;
41719;SDS011;27405;53.316;-6.294;2024-03-06T06:51:35;32.72;;;4.20;;
41719;SDS011;27405;53.316;-6.294;2024-03-06T06:54:02;33.40;;;4.32;;
41719;SDS011;27405;53.316;-6.294;2024-03-06T06:56:29;27.42;;;4.18;;
41719;SDS011;27405;53.316;-6.294;2024-03-06T06:58:56;24.90;;;3.72;;
41719;SDS011;27405;53.316;-6.294;2024-03-06T07:01:22;26.48;;;3.78;;
41719;SDS011;27405;53.316;-6.294;2024-03-06T07:03:48;27.67;;;4.03;;
41719;SDS011;27405;53.316;-6.294;2024-03-06T07:06:16;30.45;;;4.00;;
41719;SDS011;27405;53.316;-6.294;2024-03-06T07:08:42;23.00;;;3.53;;
41719;SDS011;27405;53.316;-6.294;2024-03-06T07:11:08;30.10;;;4.15;;
41719;SDS011;27405;53.316;-6.294;2024-03-06T07:13:36;28.95;;;4.30;;
41719;SDS011;27405;53.316;-6.294;2024-03-06T07:16:03;29.38;;;4.50;;
41719;SDS011;27405;53.316;-6.294;2024-03-06T07:18:29;27.63;;;3.75;;
41719;SDS011;27405;53.316;-6.294;2024-03-06T07:20:55;29.60;;;4.60;;
41719;SDS011;27405;53.316;-6.294;2024-03-06T07:23:22;30.50;;;4.22;;
41719;SDS011;27405;53.316;-6.294;2024-03-06T07:25:48;33.42;;;3.90;;
41719;SDS011;27405;53.316;-6.294;2024-03-06T07:28:14;32.30;;;4.40;;
41719;SDS011;27405;53.316;-6.294;2024-03-06T07:30:40;29.60;;;4.00;;
41719;SDS011;27405;53.316;-6.294;2024-03-06T07:33:06;35.95;;;4.47;;
41719;SDS011;27405;53.316;-6.294;2024-03-06T07:35:32;29.02;;;4.03;;
41719;SDS011;27405;53.316;-6.294;2024-03-06T07:38:01;30.08;;;5.13;;
41719;SDS011;27405;53.316;-6.294;2024-03-06T07:40:29;29.45;;;4.35;;
41719;SDS011;27405;53.316;-6.294;2024-03-06T07:42:57;28.25;;;4.80;;
41719;SDS011;27405;53.316;-6.294;2024-03-06T07:45:25;33.10;;;4.55;;
41719;SDS011;27405;53.316;-6.294;2024-03-06T07:47:51;24.95;;;4.55;;
41719;SDS011;27405;53.316;-6.294;2024-03-06T07:50:18;31.67;;;5.03;;
41719;SDS011;27405;53.316;-6.294;2024-03-06T07:52:47;33.92;;;5.22;;
41719;SDS011;27405;53.316;-6.294;2024-03-06T07:55:13;33.38;;;4.75;;
41719;SDS011;27405;53.316;-6.294;2024-03-06T07:57:39;31.05;;;4.25;;
41719;SDS011;27405;53.316;-6.294;2024-03-06T08:00:06;27.73;;;4.10;;
41719;SDS011;27405;53.316;-6.294;2024-03-06T08:05:15;29.83;;;4.65;;
41719;SDS011;27405;53.316;-6.294;2024-03-06T08:07:41;28.90;;;4.35;;
41719;SDS011;27405;53.316;-6.294;2024-03-06T08:10:08;26.85;;;4.35;;
41719;SDS011;27405;53.316;-6.294;2024-03-06T08:12:38;26.95;;;4.32;;
41719;SDS011;27405;53.316;-6.294;2024-03-06T08:15:06;23.25;;;4.68;;
41719;SDS011;27405;53.316;-6.294;2024-03-06T08:17:34;34.83;;;5.05;;
41719;SDS011;27405;53.316;-6.294;2024-03-06T08:20:02;24.48;;;4.70;;
41719;SDS011;27405;53.316;-6.294;2024-03-06T08:25:55;28.08;;;3.55;;
41719;SDS011;27405;53.316;-6.294;2024-03-06T08:28:21;26.80;;;4.63;;
41719;SDS011;27405;53.316;-6.294;2024-03-06T08:30:48;26.88;;;4.03;;
41719;SDS011;27405;53.316;-6.294;2024-03-06T08:33:14;35.00;;;4.75;;
41719;SDS011;27405;53.316;-6.294;2024-03-06T08:35:40;30.95;;;4.53;;
41719;SDS011;27405;53.316;-6.294;2024-03-06T08:38:06;42.42;;;5.43;;
41719;SDS011;27405;53.316;-6.294;2024-03-06T08:40:34;35.17;;;5.38;;
41719;SDS011;27405;53.316;-6.294;2024-03-06T08:43:00;36.55;;;4.88;;
41719;SDS011;27405;53.316;-6.294;2024-03-06T08:45:26;31.27;;;4.85;;
41719;SDS011;27405;53.316;-6.294;2024-03-06T08:47:52;28.27;;;5.60;;
41719;SDS011;27405;53.316;-6.294;2024-03-06T08:50:21;33.15;;;5.07;;
41719;SDS011;27405;53.316;-6.294;2024-03-06T08:52:47;35.13;;;4.95;;
41719;SDS011;27405;53.316;-6.294;2024-03-06T08:55:13;28.48;;;4.13;;
41719;SDS011;27405;53.316;-6.294;2024-03-06T09:01:01;32.03;;;4.50;;
41719;SDS011;27405;53.316;-6.294;2024-03-06T09:03:27;34.75;;;5.10;;
41719;SDS011;27405;53.316;-6.294;2024-03-06T09:05:53;28.60;;;5.07;;
41719;SDS011;27405;53.316;-6.294;2024-03-06T09:08:18;31.55;;;4.60;;
41719;SDS011;27405;53.316;-6.294;2024-03-06T09:10:45;29.42;;;4.40;;
41719;SDS011;27405;53.316;-6.294;2024-03-06T09:13:11;31.60;;;4.80;;
41719;SDS011;27405;53.316;-6.294;2024-03-06T09:15:37;22.30;;;3.67;;
41719;SDS011;27405;53.316;-6.294;2024-03-06T09:21:25;28.95;;;3.92;;
41719;SDS011;27405;53.316;-6.294;2024-03-06T09:23:51;30.40;;;4.53;;
41719;SDS011;27405;53.316;-6.294;2024-03-06T09:26:17;22.83;;;4.15;;
41719;SDS011;27405;53.316;-6.294;2024-03-06T09:28:43;24.35;;;3.47;;
41719;SDS011;27405;53.316;-6.294;2024-03-06T09:31:09;24.90;;;3.53;;
41719;SDS011;27405;53.316;-6.294;2024-03-06T09:33:35;21.92;;;3.83;;
41719;SDS011;27405;53.316;-6.294;2024-03-06T09:36:01;31.55;;;5.20;;
41719;SDS011;27405;53.316;-6.294;2024-03-06T09:38:28;29.83;;;4.13;;
41719;SDS011;27405;53.316;-6.294;2024-03-06T09:40:57;25.52;;;3.97;;
41719;SDS011;27405;53.316;-6.294;2024-03-06T09:45:50;27.25;;;3.80;;
41719;SDS011;27405;53.316;-6.294;2024-03-06T09:48:18;29.77;;;4.32;;
41719;SDS011;27405;53.316;-6.294;2024-03-06T09:50:46;23.27;;;4.00;;
41719;SDS011;27405;53.316;-6.294;2024-03-06T09:53:15;31.17;;;5.03;;
41719;SDS011;27405;53.316;-6.294;2024-03-06T09:59:05;24.15;;;4.55;;
41719;SDS011;27405;53.316;-6.294;2024-03-06T10:01:31;26.15;;;4.05;;
41719;SDS011;27405;53.316;-6.294;2024-03-06T10:03:58;36.40;;;5.20;;
41719;SDS011;27405;53.316;-6.294;2024-03-06T10:06:24;26.52;;;4.60;;
41719;SDS011;27405;53.316;-6.294;2024-03-06T10:08:51;21.45;;;3.85;;
41719;SDS011;27405;53.316;-6.294;2024-03-06T10:11:17;31.50;;;4.25;;
41719;SDS011;27405;53.316;-6.294;2024-03-06T10:13:43;22.40;;;3.40;;
41719;SDS011;27405;53.316;-6.294;2024-03-06T10:16:09;22.95;;;3.80;;
41719;SDS011;27405;53.316;-6.294;2024-03-06T10:18:36;21.73;;;3.67;;
41719;SDS011;27405;53.316;-6.294;2024-03-06T10:21:04;31.85;;;4.60;;
41719;SDS011;27405;53.316;-6.294;2024-03-06T10:23:34;28.80;;;4.32;;
41719;SDS011;27405;53.316;-6.294;2024-03-06T10:26:00;25.30;;;3.80;;
41719;SDS011;27405;53.316;-6.294;2024-03-06T10:31:52;29.65;;;4.47;;
41719;SDS011;27405;53.316;-6.294;2024-03-06T10:34:23;20.27;;;4.05;;
41719;SDS011;27405;53.316;-6.294;2024-03-06T10:37:09;27.42;;;4.28;;
41719;SDS011;27405;53.316;-6.294;2024-03-06T10:39:35;25.15;;;4.28;;
41719;SDS011;27405;53.316;-6.294;2024-03-06T10:42:03;19.73;;;3.65;;
41719;SDS011;27405;53.316;-6.294;2024-03-06T10:44:33;28.20;;;4.10;;
41719;SDS011;27405;53.316;-6.294;2024-03-06T10:47:02;21.33;;;3.90;;
41719;SDS011;27405;53.316;-6.294;2024-03-06T10:49:31;21.45;;;3.67;;
41719;SDS011;27405;53.316;-6.294;2024-03-06T10:52:03;25.35;;;4.10;;
41719;SDS011;27405;53.316;-6.294;2024-03-06T10:54:33;26.08;;;3.75;;
41719;SDS011;27405;53.316;-6.294;2024-03-06T10:59:28;27.15;;;4.72;;
41719;SDS011;27405;53.316;-6.294;2024-03-06T11:02:00;21.80;;;3.38;;
41719;SDS011;27405;53.316;-6.294;2024-03-06T11:04:28;25.60;;;3.92;;
41719;SDS011;27405;53.316;-6.294;2024-03-06T11:13:46;26.55;;;4.07;;
41719;SDS011;27405;53.316;-6.294;2024-03-06T11:16:12;20.08;;;3.38;;
41719;SDS011;27405;53.316;-6.294;2024-03-06T11:22:00;23.65;;;3.40;;
41719;SDS011;27405;53.316;-6.294;2024-03-06T11:24:32;18.10;;;3.55;;
41719;SDS011;27405;53.316;-6.294;2024-03-06T11:27:02;20.38;;;3.60;;
41719;SDS011;27405;53.316;-6.294;2024-03-06T11:30:02;24.13;;;3.60;;
41719;SDS011;27405;53.316;-6.294;2024-03-06T11:32:36;27.02;;;4.25;;
41719;SDS011;27405;53.316;-6.294;2024-03-06T11:35:04;31.73;;;4.80;;
41719;SDS011;27405;53.316;-6.294;2024-03-06T11:37:33;24.55;;;4.22;;
41719;SDS011;27405;53.316;-6.294;2024-03-06T11:40:01;25.27;;;4.15;;
41719;SDS011;27405;53.316;-6.294;2024-03-06T11:42:33;20.75;;;3.67;;
41719;SDS011;27405;53.316;-6.294;2024-03-06T11:45:01;32.08;;;4.95;;
41719;SDS011;27405;53.316;-6.294;2024-03-06T11:52:55;21.00;;;3.17;;
41719;SDS011;27405;53.316;-6.294;2024-03-06T11:55:21;24.77;;;3.88;;
41719;SDS011;27405;53.316;-6.294;2024-03-06T11:57:48;23.38;;;3.75;;
41719;SDS011;27405;53.316;-6.294;2024-03-06T12:00:14;21.98;;;3.60;;
41719;SDS011;27405;53.316;-6.294;2024-03-06T12:02:40;17.67;;;3.35;;
41719;SDS011;27405;53.316;-6.294;2024-03-06T12:05:07;23.45;;;4.00;;
41719;SDS011;27405;53.316;-6.294;2024-03-06T12:10:57;22.27;;;4.00;;
41719;SDS011;27405;53.316;-6.294;2024-03-06T12:16:55;24.83;;;3.97;;
41719;SDS011;27405;53.316;-6.294;2024-03-06T12:19:22;21.20;;;3.47;;
41719;SDS011;27405;53.316;-6.294;2024-03-06T12:21:48;22.17;;;3.50;;
41719;SDS011;27405;53.316;-6.294;2024-03-06T12:24:15;21.63;;;3.40;;
41719;SDS011;27405;53.316;-6.294;2024-03-06T12:26:43;20.38;;;3.40;;
41719;SDS011;27405;53.316;-6.294;2024-03-06T12:29:12;26.00;;;3.75;;
41719;SDS011;27405;53.316;-6.294;2024-03-06T12:31:46;23.65;;;3.80;;
41719;SDS011;27405;53.316;-6.294;2024-03-06T12:37:35;20.80;;;3.63;;
41719;SDS011;27405;53.316;-6.294;2024-03-06T12:40:01;20.63;;;3.45;;
41719;SDS011;27405;53.316;-6.294;2024-03-06T12:42:30;20.27;;;3.53;;
41719;SDS011;27405;53.316;-6.294;2024-03-06T12:44:56;19.52;;;2.97;;
41719;SDS011;27405;53.316;-6.294;2024-03-06T12:47:22;21.88;;;3.33;;
41719;SDS011;27405;53.316;-6.294;2024-03-06T12:53:10;32.50;;;5.10;;
41719;SDS011;27405;53.316;-6.294;2024-03-06T12:55:36;26.42;;;3.78;;
41719;SDS011;27405;53.316;-6.294;2024-03-06T12:58:02;20.25;;;3.58;;
41719;SDS011;27405;53.316;-6.294;2024-03-06T13:00:29;27.55;;;5.13;;
41719;SDS011;27405;53.316;-6.294;2024-03-06T13:02:56;24.52;;;4.47;;
41719;SDS011;27405;53.316;-6.294;2024-03-06T13:05:22;22.83;;;3.55;;
41719;SDS011;27405;53.316;-6.294;2024-03-06T13:07:48;17.67;;;2.90;;
41719;SDS011;27405;53.316;-6.294;2024-03-06T13:10:14;25.02;;;3.80;;
41719;SDS011;27405;53.316;-6.294;2024-03-06T13:12:40;21.08;;;4.38;;
41719;SDS011;27405;53.316;-6.294;2024-03-06T13:15:06;21.50;;;3.63;;
41719;SDS011;27405;53.316;-6.294;2024-03-06T13:17:32;23.25;;;3.75;;
41719;SDS011;27405;53.316;-6.294;2024-03-06T13:19:59;24.77;;;3.85;;
41719;SDS011;27405;53.316;-6.294;2024-03-06T13:22:25;23.80;;;3.50;;
41719;SDS011;27405;53.316;-6.294;2024-03-06T13:24:51;26.77;;;3.85;;
41719;SDS011;27405;53.316;-6.294;2024-03-06T13:27:18;17.65;;;3.10;;
41719;SDS011;27405;53.316;-6.294;2024-03-06T13:29:44;21.17;;;3.63;;
41719;SDS011;27405;53.316;-6.294;2024-03-06T13:32:10;22.35;;;4.20;;
41719;SDS011;27405;53.316;-6.294;2024-03-06T13:34:36;28.00;;;4.18;;
41719;SDS011;27405;53.316;-6.294;2024-03-06T13:37:02;30.80;;;4.55;;
41719;SDS011;27405;53.316;-6.294;2024-03-06T13:39:28;27.05;;;4.25;;
41719;SDS011;27405;53.316;-6.294;2024-03-06T13:41:54;27.55;;;4.85;;
41719;SDS011;27405;53.316;-6.294;2024-03-06T13:44:20;25.55;;;3.95;;
41719;SDS011;27405;53.316;-6.294;2024-03-06T13:46:46;26.75;;;4.00;;
41719;SDS011;27405;53.316;-6.294;2024-03-06T13:52:05;28.48;;;5.30;;
41719;SDS011;27405;53.316;-6.294;2024-03-06T13:54:39;26.63;;;4.63;;
41719;SDS011;27405;53.316;-6.294;2024-03-06T13:57:07;21.40;;;4.22;;
41719;SDS011;27405;53.316;-6.294;2024-03-06T13:59:34;26.92;;;4.80;;
41719;SDS011;27405;53.316;-6.294;2024-03-06T14:02:00;22.05;;;3.72;;
41719;SDS011;27405;53.316;-6.294;2024-03-06T14:04:28;25.52;;;5.00;;
41719;SDS011;27405;53.316;-6.294;2024-03-06T14:06:54;30.92;;;6.43;;
41719;SDS011;27405;53.316;-6.294;2024-03-06T14:09:22;31.10;;;5.28;;
41719;SDS011;27405;53.316;-6.294;2024-03-06T14:11:50;30.20;;;4.70;;
41719;SDS011;27405;53.316;-6.294;2024-03-06T14:14:17;25.95;;;4.43;;
41719;SDS011;27405;53.316;-6.294;2024-03-06T14:16:44;25.48;;;4.60;;
41719;SDS011;27405;53.316;-6.294;2024-03-06T14:19:10;30.30;;;5.20;;
41719;SDS011;27405;53.316;-6.294;2024-03-06T14:21:37;29.02;;;5.25;;
41719;SDS011;27405;53.316;-6.294;2024-03-06T14:24:03;35.25;;;4.30;;
41719;SDS011;27405;53.316;-6.294;2024-03-06T14:26:34;26.95;;;5.10;;
41719;SDS011;27405;53.316;-6.294;2024-03-06T14:29:00;32.38;;;5.60;;
41719;SDS011;27405;53.316;-6.294;2024-03-06T14:31:31;33.42;;;4.80;;
41719;SDS011;27405;53.316;-6.294;2024-03-06T14:33:57;34.90;;;5.05;;
41719;SDS011;27405;53.316;-6.294;2024-03-06T14:36:23;34.78;;;5.20;;
41719;SDS011;27405;53.316;-6.294;2024-03-06T14:38:50;29.02;;;5.43;;
41719;SDS011;27405;53.316;-6.294;2024-03-06T14:41:19;25.95;;;4.13;;
41719;SDS011;27405;53.316;-6.294;2024-03-06T14:43:46;29.83;;;4.90;;
41719;SDS011;27405;53.316;-6.294;2024-03-06T14:46:12;30.70;;;4.65;;
41719;SDS011;27405;53.316;-6.294;2024-03-06T14:48:38;30.02;;;4.30;;
41719;SDS011;27405;53.316;-6.294;2024-03-06T14:51:06;28.80;;;4.63;;
41719;SDS011;27405;53.316;-6.294;2024-03-06T14:53:32;27.20;;;4.60;;
41719;SDS011;27405;53.316;-6.294;2024-03-06T14:59:23;28.23;;;4.78;;
41719;SDS011;27405;53.316;-6.294;2024-03-06T15:01:49;29.40;;;5.10;;
41719;SDS011;27405;53.316;-6.294;2024-03-06T15:04:16;33.92;;;5.32;;
41719;SDS011;27405;53.316;-6.294;2024-03-06T15:06:43;28.60;;;5.80;;
41719;SDS011;27405;53.316;-6.294;2024-03-06T15:09:10;32.17;;;5.03;;
41719;SDS011;27405;53.316;-6.294;2024-03-06T15:11:38;32.58;;;5.03;;
41719;SDS011;27405;53.316;-6.294;2024-03-06T15:14:05;29.90;;;5.93;;
41719;SDS011;27405;53.316;-6.294;2024-03-06T15:16:33;27.13;;;5.70;;
41719;SDS011;27405;53.316;-6.294;2024-03-06T15:18:59;35.72;;;5.55;;
41719;SDS011;27405;53.316;-6.294;2024-03-06T15:21:28;28.75;;;5.40;;
41719;SDS011;27405;53.316;-6.294;2024-03-06T15:23:56;33.58;;;5.70;;
41719;SDS011;27405;53.316;-6.294;2024-03-06T15:26:22;30.38;;;5.13;;
41719;SDS011;27405;53.316;-6.294;2024-03-06T15:28:48;33.33;;;4.95;;
41719;SDS011;27405;53.316;-6.294;2024-03-06T15:31:14;30.10;;;4.65;;